Terminal Aerodrome Forecast
Issued by NWS

Home | Current Version | Previous Version | Text Only | Print | Product List | Glossary On
Versions: 1 2 3 4 5 6 7 8 9 10 11 12 13 14 15 16 17 18 19 20 21 22 23 24 25 26 27
550
FTUS43 KLOT 220903 AAB
TAFORD
TAF AMD
KORD 220903Z 2209/2312 21004KT 1SM BR BKN003
      TEMPO 2209/2213 1/2SM FG VV002
     FM221430 21010KT P6SM SCT030
     FM221800 20015G25KT P6SM SKC
     FM222300 24010KT P6SM SKC
     FM230700 29008KT P6SM SCT250=

USA.gov is the U.S. government's official web portal to all federal, state and local government web resources and services.